createdAt,value
2023-03-24T00:01:16.227Z,97969.97
2023-03-24T00:04:02.910Z,97965.16
2023-03-24T00:06:52.527Z,97965.16
2023-03-24T00:09:38.182Z,97954.81
2023-03-24T00:12:23.544Z,97951.28
2023-03-24T00:15:13.445Z,97942.94
2023-03-24T00:17:59.205Z,97943.38
2023-03-24T00:20:46.112Z,97942.94
2023-03-24T00:23:32.670Z,97941.41
2023-03-24T00:26:18.136Z,97941.69
2023-03-24T00:29:05.171Z,97933.06
2023-03-24T00:31:52.757Z,97936.59
2023-03-24T00:34:38.638Z,97936.59
2023-03-24T00:37:24.166Z,97931.03
2023-03-24T00:40:13.490Z,97931.81
2023-03-24T00:42:59.236Z,97925.50
2023-03-24T00:45:47.848Z,97927.50
2023-03-24T00:48:34.297Z,97921.94
2023-03-24T00:51:20.578Z,97913.59
2023-03-24T00:54:09.270Z,97917.16
2023-03-24T00:56:56.007Z,97910.03
2023-03-24T00:59:49.094Z,97910.03
2023-03-24T01:02:34.965Z,97908.03
2023-03-24T01:05:28.112Z,97898.13
2023-03-24T01:08:20.385Z,97894.59
2023-03-24T01:11:06.740Z,97896.94
2023-03-24T01:13:54.654Z,97895.38
2023-03-24T01:16:42.280Z,97888.28
2023-03-24T01:19:29.145Z,97885.50
2023-03-24T01:22:15.363Z,97884.25
2023-03-24T01:25:01.043Z,97880.69
2023-03-24T01:27:47.725Z,97877.91
2023-03-24T01:30:33.415Z,97876.34
2023-03-24T01:33:18.674Z,97875.13
2023-03-24T01:36:06.185Z,97872.34
2023-03-24T01:38:52.602Z,97871.59
2023-03-24T01:41:41.234Z,97874.38
2023-03-24T01:44:33.585Z,97871.59
2023-03-24T01:47:19.245Z,97861.69
2023-03-24T01:50:05.187Z,97870.03
2023-03-24T01:52:50.443Z,97870.78
2023-03-24T01:55:36.044Z,97877.16
2023-03-24T01:58:25.961Z,97860.47
2023-03-24T02:01:50.070Z,97856.91
2023-03-24T02:05:02.453Z,97856.13
2023-03-24T02:08:21.245Z,97852.59
2023-03-24T02:11:07.125Z,97864.47
2023-03-24T02:14:02.894Z,97860.94
2023-03-24T02:16:51.304Z,97851.03
2023-03-24T02:20:11.351Z,97851.81
2023-03-24T02:23:08.484Z,97854.59
2023-03-24T02:26:18.652Z,97849.03
2023-03-24T02:29:48.941Z,97843.94
2023-03-24T02:32:57.160Z,97839.13
2023-03-24T02:35:45.705Z,97839.13
2023-03-24T02:38:43.769Z,97822.47
2023-03-24T02:41:37.045Z,97824.78
2023-03-24T02:44:30.761Z,97826.50
2023-03-24T02:47:18.817Z,97822.47
2023-03-24T02:50:14.024Z,97824.03
2023-03-24T02:53:09.300Z,97816.91
2023-03-24T02:56:22.343Z,97816.91
2023-03-24T02:59:19.626Z,97816.13
2023-03-24T03:02:13.125Z,97816.13
2023-03-24T03:05:27.513Z,97810.59
2023-03-24T03:08:17.329Z,97816.91
2023-03-24T03:11:07.036Z,97816.13
2023-03-24T03:14:01.251Z,97817.69
2023-03-24T03:16:53.627Z,97828.03
2023-03-24T03:19:42.679Z,97827.25
2023-03-24T03:22:33.943Z,97827.25
2023-03-24T03:25:24.527Z,97816.91
2023-03-24T03:28:14.372Z,97807.03
2023-03-24T03:31:05.882Z,97801.00
2023-03-24T03:34:05.959Z,97794.69
2023-03-24T03:37:04.153Z,97778.00
2023-03-24T03:40:09.161Z,97768.91
2023-03-24T03:42:57.632Z,97755.75
2023-03-24T03:45:43.867Z,97776.47
2023-03-24T03:48:29.291Z,97776.47
2023-03-24T03:51:16.407Z,97770.91
2023-03-24T03:54:12.530Z,97766.13
2023-03-24T03:56:59.881Z,97757.78
2023-03-24T03:59:50.382Z,97754.22
2023-03-24T04:03:05.457Z,97754.22
2023-03-24T04:06:01.914Z,97748.69
2023-03-24T04:09:18.591Z,97748.69
2023-03-24T04:12:40.596Z,97755.00
2023-03-24T04:15:51.606Z,97742.34
2023-03-24T04:19:16.055Z,97744.34
2023-03-24T04:22:24.572Z,97747.13
2023-03-24T04:25:42.437Z,97751.91
2023-03-24T04:28:39.858Z,97745.59
2023-03-24T04:31:41.158Z,97734.47
2023-03-24T04:34:36.089Z,97733.69
2023-03-24T04:37:38.276Z,97745.59
2023-03-24T04:40:42.170Z,97742.81
2023-03-24T04:43:36.106Z,97734.47
2023-03-24T04:46:24.282Z,97747.91
2023-03-24T04:49:13.441Z,97737.56
2023-03-24T04:51:59.952Z,97730.44
2023-03-24T04:54:47.118Z,97728.75
2023-03-24T04:57:32.852Z,97724.28
2023-03-24T05:00:25.038Z,97725.19
2023-03-24T05:03:16.776Z,97721.50
2023-03-24T05:06:05.720Z,97713.78
2023-03-24T05:08:55.068Z,97710.53
2023-03-24T05:11:41.348Z,97712.84
2023-03-24T05:14:32.289Z,97703.25
2023-03-24T05:17:18.031Z,97704.06
2023-03-24T05:20:06.924Z,97697.56
2023-03-24T05:22:52.771Z,97701.41
2023-03-24T05:25:38.385Z,97705.56
2023-03-24T05:28:23.791Z,97699.56
2023-03-24T05:31:11.565Z,97694.00
2023-03-24T05:34:02.542Z,97692.75
2023-03-24T05:36:49.570Z,97683.66
2023-03-24T05:39:42.903Z,97674.22
2023-03-24T05:42:52.131Z,97673.91
2023-03-24T05:45:39.408Z,97673.91
2023-03-24T05:48:34.094Z,97666.03
2023-03-24T05:51:30.792Z,97660.47
2023-03-24T05:54:22.815Z,97666.84
2023-03-24T05:57:14.668Z,97654.59
2023-03-24T06:00:18.675Z,97661.88
2023-03-24T06:03:17.343Z,97656.81
2023-03-24T06:06:15.607Z,97657.56
2023-03-24T06:09:05.073Z,97647.06
2023-03-24T06:11:51.151Z,97650.78
2023-03-24T06:14:36.985Z,97646.47
2023-03-24T06:17:30.372Z,97643.38
2023-03-24T06:20:18.834Z,97630.69
2023-03-24T06:23:12.613Z,97626.38
2023-03-24T06:26:11.718Z,97622.06
2023-03-24T06:29:07.140Z,97622.06
2023-03-24T06:31:56.669Z,97621.28
2023-03-24T06:34:42.334Z,97618.50
2023-03-24T06:37:50.466Z,97616.66
2023-03-24T06:40:36.122Z,97607.88
2023-03-24T06:43:21.860Z,97613.44
2023-03-24T06:46:10.134Z,97611.09
2023-03-24T06:48:59.044Z,97618.69
2023-03-24T06:51:44.256Z,97611.09
2023-03-24T06:54:31.876Z,97614.97
2023-03-24T06:57:19.237Z,97617.44
2023-03-24T07:00:42.448Z,97618.19
2023-03-24T07:03:51.148Z,97612.63
2023-03-24T07:07:12.080Z,97606.78
2023-03-24T07:10:03.661Z,97601.69
2023-03-24T07:12:50.183Z,97609.56
2023-03-24T07:15:35.647Z,97607.25
2023-03-24T07:18:22.018Z,97605.56
2023-03-24T07:21:14.043Z,97613.88
2023-03-24T07:24:02.174Z,97607.88
2023-03-24T07:27:08.741Z,97599.53
2023-03-24T07:29:54.656Z,97610.34
2023-03-24T07:32:49.559Z,97608.03
2023-03-24T07:35:36.536Z,97594.88
2023-03-24T07:38:25.319Z,97598.59
2023-03-24T07:41:14.299Z,97596.13
2023-03-24T07:44:05.503Z,97596.13
2023-03-24T07:46:59.980Z,97606.47
2023-03-24T07:49:46.204Z,97601.69
2023-03-24T07:52:33.608Z,97606.00
2023-03-24T07:55:19.150Z,97604.78
2023-03-24T07:58:27.834Z,97603.53
2023-03-24T08:01:30.657Z,97604.00
2023-03-24T08:04:19.330Z,97613.88
2023-03-24T08:07:24.937Z,97605.09
2023-03-24T08:10:12.670Z,97612.63
2023-03-24T08:12:59.105Z,97613.25
2023-03-24T08:15:44.668Z,97609.41
2023-03-24T08:18:32.087Z,97612.19
2023-03-24T08:21:17.671Z,97611.88
2023-03-24T08:24:02.965Z,97605.56
2023-03-24T08:26:48.568Z,97602.00
2023-03-24T08:29:38.104Z,97616.66
2023-03-24T08:32:28.488Z,97613.13
2023-03-24T08:35:16.785Z,97610.34
2023-03-24T08:38:06.529Z,97622.69
2023-03-24T08:40:52.343Z,97629.50
2023-03-24T08:43:38.003Z,97632.25
2023-03-24T08:46:23.857Z,97627.94
2023-03-24T08:49:09.852Z,97628.69
2023-03-24T08:51:55.521Z,97623.13
2023-03-24T08:54:40.647Z,97605.69
2023-03-24T08:57:26.187Z,97597.84
2023-03-24T09:00:15.724Z,97598.59
2023-03-24T09:03:01.585Z,97602.59
2023-03-24T09:05:47.691Z,97605.38
2023-03-24T09:08:33.087Z,97608.16
2023-03-24T09:11:20.378Z,97616.81
2023-03-24T09:14:06.116Z,97623.13
2023-03-24T09:16:51.434Z,97611.75
2023-03-24T09:19:37.630Z,97613.28
2023-03-24T09:22:23.093Z,97607.41
2023-03-24T09:25:10.421Z,97608.97
2023-03-24T09:27:57.005Z,97613.72
2023-03-24T09:30:43.365Z,97619.28
2023-03-24T09:33:31.805Z,97606.63
2023-03-24T09:36:19.148Z,97614.53
2023-03-24T09:39:05.026Z,97616.50
2023-03-24T09:41:50.668Z,97623.31
2023-03-24T09:44:46.580Z,97619.78
2023-03-24T09:47:38.248Z,97619.78
2023-03-24T09:50:43.293Z,97617.75
2023-03-24T09:53:41.877Z,97617.75
2023-03-24T09:56:29.755Z,97620.53
2023-03-24T09:59:20.700Z,97634.44
2023-03-24T10:02:23.062Z,97621.00
2023-03-24T10:05:37.761Z,97621.00
2023-03-24T10:08:35.920Z,97625.78
2023-03-24T10:11:32.191Z,97633.81
2023-03-24T10:14:40.670Z,97633.34
2023-03-24T10:17:41.542Z,97626.09
2023-03-24T10:20:56.606Z,97624.53
2023-03-24T10:24:08.204Z,97610.63
2023-03-24T10:27:00.984Z,97610.34
2023-03-24T10:29:49.212Z,97634.88
2023-03-24T10:32:36.335Z,97613.09
2023-03-24T10:35:27.672Z,97624.22
2023-03-24T10:38:22.063Z,97611.56
2023-03-24T10:41:12.527Z,97615.88
2023-03-24T10:43:59.311Z,97610.63
2023-03-24T10:46:48.518Z,97621.75
2023-03-24T10:49:33.755Z,97608.66
2023-03-24T10:52:19.823Z,97598.00
2023-03-24T10:55:07.212Z,97616.19
2023-03-24T10:57:58.314Z,97612.34
2023-03-24T11:00:45.327Z,97620.69
2023-03-24T11:03:36.601Z,97632.56
2023-03-24T11:06:22.384Z,97646.44
2023-03-24T11:09:19.617Z,97646.44
2023-03-24T11:12:05.275Z,97648.00
2023-03-24T11:14:50.899Z,97659.88
2023-03-24T11:17:36.136Z,97655.09
2023-03-24T11:20:25.809Z,97677.03
2023-03-24T11:23:19.939Z,97665.44
2023-03-24T11:26:28.369Z,97655.59
2023-03-24T11:29:18.835Z,97650.78
2023-03-24T11:32:13.676Z,97654.19
2023-03-24T11:35:07.777Z,97655.41
2023-03-24T11:37:54.099Z,97649.53
2023-03-24T11:40:53.519Z,97637.22
2023-03-24T11:43:38.846Z,97654.66
2023-03-24T11:46:26.580Z,97647.06
2023-03-24T11:49:16.891Z,97648.63
2023-03-24T11:52:04.579Z,97647.38
2023-03-24T11:54:50.154Z,97635.03
2023-03-24T11:57:56.508Z,97640.59
2023-03-24T12:01:02.066Z,97634.56
2023-03-24T12:04:07.715Z,97616.66
2023-03-24T12:06:52.831Z,97612.63
2023-03-24T12:10:02.959Z,97605.09
2023-03-24T12:12:54.421Z,97610.16
2023-03-24T12:15:51.438Z,97597.03
2023-03-24T12:19:11.156Z,97590.25
2023-03-24T12:22:23.093Z,97604.91
2023-03-24T12:25:38.232Z,97608.47
2023-03-24T12:28:46.705Z,97610.47
2023-03-24T12:31:45.368Z,97616.03
2023-03-24T12:35:06.272Z,97614.03
2023-03-24T12:37:57.845Z,97616.78
2023-03-24T12:40:43.213Z,97617.09
2023-03-24T12:43:50.393Z,97620.19
2023-03-24T12:47:10.477Z,97627.31
2023-03-24T12:50:05.636Z,97612.63
2023-03-24T12:53:07.818Z,97616.66
2023-03-24T12:56:00.384Z,97608.63
2023-03-24T12:58:53.899Z,97597.97
2023-03-24T13:01:41.473Z,97599.50
2023-03-24T13:04:33.987Z,97595.47
2023-03-24T13:07:28.948Z,97599.03
2023-03-24T13:10:21.691Z,97601.03
2023-03-24T13:13:23.936Z,97598.56
2023-03-24T13:16:15.365Z,97601.66
2023-03-24T13:19:02.739Z,97582.50
2023-03-24T13:21:50.849Z,97589.91
2023-03-24T13:24:36.276Z,97589.25
2023-03-24T13:27:32.467Z,97583.53
2023-03-24T13:30:39.873Z,97576.59
2023-03-24T13:33:29.987Z,97579.03
2023-03-24T13:36:18.611Z,97564.19
2023-03-24T13:39:14.592Z,97569.56
2023-03-24T13:42:01.455Z,97563.84
2023-03-24T13:44:49.219Z,97564.47
2023-03-24T13:47:55.946Z,97564.75
2023-03-24T13:50:55.824Z,97571.41
2023-03-24T13:53:52.902Z,97570.00
2023-03-24T13:56:48.865Z,97666.91
2023-03-24T14:00:08.607Z,97702.13
2023-03-24T14:03:04.013Z,97711.25
2023-03-24T14:06:05.433Z,97722.69
2023-03-24T14:08:52.751Z,97746.78
2023-03-24T14:11:42.270Z,97743.09
2023-03-24T14:14:29.433Z,97723.41
2023-03-24T14:17:15.821Z,97731.16
2023-03-24T14:20:05.893Z,97747.69
2023-03-24T14:22:53.148Z,97750.00
2023-03-24T14:25:38.652Z,97753.09
2023-03-24T14:28:39.106Z,97729.56
2023-03-24T14:31:29.829Z,97733.72
2023-03-24T14:34:21.296Z,97735.28
2023-03-24T14:37:08.994Z,97736.19
2023-03-24T14:39:57.555Z,97747.34
2023-03-24T14:42:42.997Z,97751.69
2023-03-24T14:46:06.411Z,97752.75
2023-03-24T14:49:15.799Z,97750.28
2023-03-24T14:52:20.300Z,97740.66
2023-03-24T14:55:10.844Z,97734.34
2023-03-24T14:58:02.223Z,97751.03
2023-03-24T15:01:06.391Z,97754.13
2023-03-24T15:04:06.885Z,97730.63
2023-03-24T15:06:52.386Z,97746.84
2023-03-24T15:09:38.713Z,97729.06
2023-03-24T15:12:24.607Z,97720.72
2023-03-24T15:15:27.187Z,97731.84
2023-03-24T15:18:19.575Z,97731.09
2023-03-24T15:21:34.753Z,97720.41
2023-03-24T15:24:23.046Z,97732.81
2023-03-24T15:27:08.387Z,97725.69
2023-03-24T15:29:57.645Z,97714.72
2023-03-24T15:32:46.211Z,97709.47
2023-03-24T15:35:33.897Z,97711.16
2023-03-24T15:38:27.215Z,97693.22
2023-03-24T15:41:14.339Z,97670.19
2023-03-24T15:43:59.994Z,97667.09
2023-03-24T15:46:45.940Z,97685.81
2023-03-24T15:49:33.977Z,97687.50
2023-03-24T15:52:28.963Z,97675.31
2023-03-24T15:55:36.741Z,97671.00
2023-03-24T15:58:25.510Z,97675.50
2023-03-24T16:01:14.255Z,97669.31
2023-03-24T16:04:01.834Z,97659.13
2023-03-24T16:06:54.046Z,97665.63
2023-03-24T16:09:40.937Z,97663.03
2023-03-24T16:12:26.804Z,97663.94
2023-03-24T16:15:13.213Z,97658.09
2023-03-24T16:17:59.468Z,97658.56
2023-03-24T16:20:44.571Z,97663.81
2023-03-24T16:23:30.993Z,97665.50
2023-03-24T16:26:19.835Z,97662.47
2023-03-24T16:29:22.748Z,97677.56
2023-03-24T16:32:09.689Z,97667.69
2023-03-24T16:34:55.033Z,97659.50
2023-03-24T16:37:42.487Z,97655.19
2023-03-24T16:40:39.257Z,97673.56
2023-03-24T16:43:27.439Z,97685.16
2023-03-24T16:46:31.602Z,97686.88
2023-03-24T16:49:18.541Z,97681.00
2023-03-24T16:52:04.361Z,97672.34
2023-03-24T16:54:50.627Z,97656.88
2023-03-24T16:57:38.341Z,97662.94
2023-03-24T17:00:24.268Z,97662.63
2023-03-24T17:03:10.594Z,97678.56
2023-03-24T17:05:57.695Z,97682.56
2023-03-24T17:08:45.041Z,97686.59
2023-03-24T17:11:58.545Z,97700.19
2023-03-24T17:14:44.456Z,97697.41
2023-03-24T17:17:30.728Z,97710.06
2023-03-24T17:20:16.703Z,97701.09
2023-03-24T17:23:02.209Z,97713.00
2023-03-24T17:25:47.681Z,97707.28
2023-03-24T17:28:33.090Z,97715.78
2023-03-24T17:31:18.446Z,97708.34
2023-03-24T17:34:20.375Z,97693.38
2023-03-24T17:37:06.534Z,97702.03
2023-03-24T17:39:52.990Z,97713.16
2023-03-24T17:42:40.798Z,97709.13
2023-03-24T17:45:26.249Z,97709.91
2023-03-24T17:48:11.632Z,97713.00
2023-03-24T17:50:57.218Z,97725.66
2023-03-24T17:53:45.016Z,97726.44
2023-03-24T17:56:30.770Z,97726.28
2023-03-24T17:59:16.214Z,97730.13
2023-03-24T18:02:01.881Z,97734.59
2023-03-24T18:04:47.485Z,97738.00
2023-03-24T18:07:33.028Z,97744.66
2023-03-24T18:10:18.815Z,97744.00
2023-03-24T18:13:05.329Z,97756.56
2023-03-24T18:15:50.974Z,97752.06
2023-03-24T18:18:41.324Z,97746.81
2023-03-24T18:21:27.147Z,97741.53
2023-03-24T18:24:12.427Z,97747.41
2023-03-24T18:26:58.287Z,97748.50
2023-03-24T18:29:43.928Z,97755.44
2023-03-24T18:32:30.685Z,97750.66
2023-03-24T18:35:16.658Z,97765.66
2023-03-24T18:38:02.178Z,97758.84
2023-03-24T18:40:49.658Z,97764.72
2023-03-24T18:43:40.973Z,97765.78
2023-03-24T18:46:27.439Z,97765.31
2023-03-24T18:49:16.814Z,97770.88
2023-03-24T18:52:02.483Z,97756.50
2023-03-24T18:54:49.163Z,97774.28
2023-03-24T18:57:34.874Z,97774.75
2023-03-24T19:00:21.887Z,97769.19
2023-03-24T19:03:08.284Z,97771.97
2023-03-24T19:05:53.520Z,97786.50
2023-03-24T19:08:42.068Z,97791.88
2023-03-24T19:11:27.701Z,97792.38
2023-03-24T19:14:13.088Z,97792.19
2023-03-24T19:16:59.748Z,97789.41
2023-03-24T19:19:45.415Z,97796.53
2023-03-24T19:22:31.157Z,97785.38
2023-03-24T19:25:16.656Z,97789.72
2023-03-24T19:28:02.637Z,97786.91
2023-03-24T19:30:48.698Z,97792.50
2023-03-24T19:33:35.781Z,97802.09
2023-03-24T19:36:21.375Z,97810.75
2023-03-24T19:39:07.552Z,97806.41
2023-03-24T19:41:53.494Z,97808.44
2023-03-24T19:44:38.997Z,97804.56
2023-03-24T19:47:24.378Z,97806.59
2023-03-24T19:50:10.740Z,97800.72
2023-03-24T19:52:56.393Z,97803.94
2023-03-24T19:55:41.827Z,97809.69
2023-03-24T19:58:27.272Z,97807.84
2023-03-24T20:01:12.937Z,97808.28
2023-03-24T20:03:58.583Z,97804.44
2023-03-24T20:06:46.099Z,97811.72
2023-03-24T20:09:31.786Z,97806.31
2023-03-24T20:12:17.350Z,97800.44
2023-03-24T20:15:03.993Z,97809.72
2023-03-24T20:17:49.919Z,97817.75
2023-03-24T20:20:36.314Z,97813.13
2023-03-24T20:23:23.068Z,97815.59
2023-03-24T20:26:12.256Z,97810.97
2023-03-24T20:29:01.353Z,97807.88
2023-03-24T20:31:47.203Z,97804.34
2023-03-24T20:34:33.417Z,97808.00
2023-03-24T20:37:21.929Z,97816.03
2023-03-24T20:40:09.828Z,97822.84
2023-03-24T20:42:56.502Z,97811.84
2023-03-24T20:45:42.848Z,97808.31
2023-03-24T20:48:32.283Z,97817.59
2023-03-24T20:51:18.462Z,97809.25
2023-03-24T20:54:05.764Z,97804.59
2023-03-24T20:56:54.973Z,97803.84
2023-03-24T20:59:41.385Z,97812.63
2023-03-24T21:02:32.361Z,97815.09
2023-03-24T21:05:18.824Z,97811.56
2023-03-24T21:08:04.856Z,97818.03
2023-03-24T21:10:54.675Z,97817.28
2023-03-24T21:13:40.613Z,97823.28
2023-03-24T21:16:26.959Z,97824.53
2023-03-24T21:19:13.091Z,97820.66
2023-03-24T21:21:59.408Z,97811.56
2023-03-24T21:24:44.905Z,97810.78
2023-03-24T21:27:30.695Z,97808.91
2023-03-24T21:30:18.951Z,97804.59
2023-03-24T21:33:04.517Z,97804.59
2023-03-24T21:35:50.020Z,97807.06
2023-03-24T21:38:37.495Z,97805.53
2023-03-24T21:41:23.534Z,97800.13
2023-03-24T21:44:09.525Z,97799.34
2023-03-24T21:46:54.913Z,97802.56
2023-03-24T21:49:42.864Z,97807.06
2023-03-24T21:52:29.697Z,97815.41
2023-03-24T21:55:16.413Z,97811.09
2023-03-24T21:58:01.900Z,97824.19
2023-03-24T22:00:49.627Z,97828.22
2023-03-24T22:03:37.311Z,97830.22
2023-03-24T22:06:23.190Z,97837.78
2023-03-24T22:09:10.658Z,97842.56
2023-03-24T22:11:57.491Z,97841.81
2023-03-24T22:14:42.953Z,97850.13
2023-03-24T22:17:29.209Z,97837.00
2023-03-24T22:20:15.752Z,97835.47
2023-03-24T22:23:03.616Z,97839.78
2023-03-24T22:25:52.878Z,97825.56
2023-03-24T22:28:39.423Z,97832.38
2023-03-24T22:31:26.253Z,97822.03
2023-03-24T22:34:14.083Z,97833.16
2023-03-24T22:36:59.485Z,97826.06
2023-03-24T22:39:44.733Z,97828.03
2023-03-24T22:42:30.439Z,97816.91
2023-03-24T22:45:16.214Z,97823.28
2023-03-24T22:48:02.036Z,97817.72
2023-03-24T22:50:47.652Z,97813.38
2023-03-24T22:53:33.828Z,97811.03
2023-03-24T22:56:20.442Z,97811.84
2023-03-24T22:59:06.490Z,97811.03
2023-03-24T23:02:06.521Z,97805.50
2023-03-24T23:04:55.916Z,97808.75
2023-03-24T23:07:42.372Z,97818.31
2023-03-24T23:10:28.068Z,97806.41
2023-03-24T23:13:13.617Z,97821.56
2023-03-24T23:15:59.205Z,97812.91
2023-03-24T23:18:45.570Z,97824.03
2023-03-24T23:21:31.185Z,97820.00
2023-03-24T23:24:17.061Z,97822.47
2023-03-24T23:27:02.408Z,97816.91
2023-03-24T23:29:47.729Z,97817.38
2023-03-24T23:32:34.355Z,97815.81
2023-03-24T23:35:19.962Z,97818.59
2023-03-24T23:38:06.714Z,97825.41
2023-03-24T23:40:52.163Z,97814.75
2023-03-24T23:43:37.507Z,97809.19
2023-03-24T23:46:24.211Z,97811.19
2023-03-24T23:49:09.727Z,97808.41
2023-03-24T23:51:55.265Z,97815.97
2023-03-24T23:54:40.356Z,97812.91
2023-03-24T23:57:26.184Z,97816.44
